Hartshill, United Kingdom
Current Conditions -  °F | °C
As of 12:20 PM on Thursday 29 Jan 2015 (Local Time) from EGBB Reporting Station
Moderate Snow Moderate Snow  
Wind Chill: -1°   Ceiling: 900
Heat Index:   Visibility: 3mi
Dew Point:   Wind: 12mph
Humidity: 87%   Direction: 240°WSW
Pressure: 28.91"   Gusts: NA
Location:  52.54°N, 1.52°W
Report Text: EGBB 291220Z 24010KT 210V280 5000 SN OVC009 03/01 Q0979
Loading
Personal Weather Stations






























Interactive Weather Map New forecast layout! Learn more

10-Day Weather Forecast

Advertisements
Track Severe Weather on mobile